sensor_id;sensor_type;location;lat;lon;timestamp;temperature;humidity
21682;DHT22;11002;48.256;10.084;2023-08-07T00:02:16;11.10;82.60
21682;DHT22;11002;48.256;10.084;2023-08-07T00:04:43;11.10;81.50
21682;DHT22;11002;48.256;10.084;2023-08-07T00:07:10;11.10;82.40
21682;DHT22;11002;48.256;10.084;2023-08-07T00:09:39;11.10;82.20
21682;DHT22;11002;48.256;10.084;2023-08-07T00:12:06;11.10;81.80
21682;DHT22;11002;48.256;10.084;2023-08-07T00:14:33;11.10;82.10
21682;DHT22;11002;48.256;10.084;2023-08-07T00:17:00;11.10;81.30
21682;DHT22;11002;48.256;10.084;2023-08-07T00:19:27;11.10;81.20
21682;DHT22;11002;48.256;10.084;2023-08-07T00:21:55;11.10;79.40
21682;DHT22;11002;48.256;10.084;2023-08-07T00:24:22;11.10;79.40
21682;DHT22;11002;48.256;10.084;2023-08-07T00:26:50;11.20;79.50
21682;DHT22;11002;48.256;10.084;2023-08-07T00:29:19;11.20;79.50
21682;DHT22;11002;48.256;10.084;2023-08-07T00:31:46;11.20;77.50
21682;DHT22;11002;48.256;10.084;2023-08-07T00:34:14;11.10;77.70
21682;DHT22;11002;48.256;10.084;2023-08-07T00:36:41;11.20;78.40
21682;DHT22;11002;48.256;10.084;2023-08-07T00:39:08;11.20;76.80
21682;DHT22;11002;48.256;10.084;2023-08-07T00:41:39;11.20;77.00
21682;DHT22;11002;48.256;10.084;2023-08-07T00:44:08;11.20;76.90
21682;DHT22;11002;48.256;10.084;2023-08-07T00:46:35;11.20;76.20
21682;DHT22;11002;48.256;10.084;2023-08-07T00:49:05;11.20;76.40
21682;DHT22;11002;48.256;10.084;2023-08-07T00:51:33;11.20;76.20
21682;DHT22;11002;48.256;10.084;2023-08-07T00:54:01;11.10;75.90
21682;DHT22;11002;48.256;10.084;2023-08-07T00:56:30;11.10;76.50
21682;DHT22;11002;48.256;10.084;2023-08-07T00:58:58;11.10;76.60
21682;DHT22;11002;48.256;10.084;2023-08-07T01:01:28;11.10;76.10
21682;DHT22;11002;48.256;10.084;2023-08-07T01:03:55;11.10;76.90
21682;DHT22;11002;48.256;10.084;2023-08-07T01:06:22;11.10;76.30
21682;DHT22;11002;48.256;10.084;2023-08-07T01:08:50;11.10;75.40
21682;DHT22;11002;48.256;10.084;2023-08-07T01:11:22;11.10;73.60
21682;DHT22;11002;48.256;10.084;2023-08-07T01:13:55;11.10;72.80
21682;DHT22;11002;48.256;10.084;2023-08-07T01:16:31;11.10;72.80
21682;DHT22;11002;48.256;10.084;2023-08-07T01:19:01;11.10;72.80
21682;DHT22;11002;48.256;10.084;2023-08-07T01:21:32;11.00;72.70
21682;DHT22;11002;48.256;10.084;2023-08-07T01:24:01;11.00;72.70
21682;DHT22;11002;48.256;10.084;2023-08-07T01:26:28;11.00;72.70
21682;DHT22;11002;48.256;10.084;2023-08-07T01:29:04;11.00;72.70
21682;DHT22;11002;48.256;10.084;2023-08-07T01:31:33;11.00;72.70
21682;DHT22;11002;48.256;10.084;2023-08-07T01:34:05;11.00;72.70
21682;DHT22;11002;48.256;10.084;2023-08-07T01:36:34;10.90;72.60
21682;DHT22;11002;48.256;10.084;2023-08-07T01:39:03;10.90;72.60
21682;DHT22;11002;48.256;10.084;2023-08-07T01:41:33;10.90;72.60
21682;DHT22;11002;48.256;10.084;2023-08-07T01:44:00;10.90;72.60
21682;DHT22;11002;48.256;10.084;2023-08-07T01:46:29;10.80;72.90
21682;DHT22;11002;48.256;10.084;2023-08-07T01:48:56;10.80;73.40
21682;DHT22;11002;48.256;10.084;2023-08-07T01:51:23;10.80;72.50
21682;DHT22;11002;48.256;10.084;2023-08-07T01:53:51;10.80;72.50
21682;DHT22;11002;48.256;10.084;2023-08-07T01:56:19;10.80;72.90
21682;DHT22;11002;48.256;10.084;2023-08-07T01:58:47;10.70;72.40
21682;DHT22;11002;48.256;10.084;2023-08-07T02:01:14;10.70;73.10
21682;DHT22;11002;48.256;10.084;2023-08-07T02:03:42;10.70;72.90
21682;DHT22;11002;48.256;10.084;2023-08-07T02:06:09;10.70;73.70
21682;DHT22;11002;48.256;10.084;2023-08-07T02:08:36;10.60;73.60
21682;DHT22;11002;48.256;10.084;2023-08-07T02:11:03;10.60;74.10
21682;DHT22;11002;48.256;10.084;2023-08-07T02:13:32;10.60;74.10
21682;DHT22;11002;48.256;10.084;2023-08-07T02:15:59;10.60;72.80
21682;DHT22;11002;48.256;10.084;2023-08-07T02:18:27;10.60;72.90
21682;DHT22;11002;48.256;10.084;2023-08-07T02:20:54;10.60;72.30
21682;DHT22;11002;48.256;10.084;2023-08-07T02:23:22;10.60;72.30
21682;DHT22;11002;48.256;10.084;2023-08-07T02:25:49;10.60;72.30
21682;DHT22;11002;48.256;10.084;2023-08-07T02:28:16;10.60;72.30
21682;DHT22;11002;48.256;10.084;2023-08-07T02:30:46;10.60;72.30
21682;DHT22;11002;48.256;10.084;2023-08-07T02:33:14;10.60;72.30
21682;DHT22;11002;48.256;10.084;2023-08-07T02:35:44;10.50;72.20
21682;DHT22;11002;48.256;10.084;2023-08-07T02:38:11;10.50;72.20
21682;DHT22;11002;48.256;10.084;2023-08-07T02:40:38;10.50;72.20
21682;DHT22;11002;48.256;10.084;2023-08-07T02:43:07;10.50;72.20
21682;DHT22;11002;48.256;10.084;2023-08-07T02:45:36;10.50;72.20
21682;DHT22;11002;48.256;10.084;2023-08-07T02:48:05;10.50;72.20
21682;DHT22;11002;48.256;10.084;2023-08-07T02:50:32;10.50;72.20
21682;DHT22;11002;48.256;10.084;2023-08-07T02:53:00;10.50;72.20
21682;DHT22;11002;48.256;10.084;2023-08-07T02:55:27;10.50;72.20
21682;DHT22;11002;48.256;10.084;2023-08-07T02:57:54;10.50;72.20
21682;DHT22;11002;48.256;10.084;2023-08-07T03:00:22;10.50;72.20
21682;DHT22;11002;48.256;10.084;2023-08-07T03:02:49;10.60;72.30
21682;DHT22;11002;48.256;10.084;2023-08-07T03:05:18;10.70;72.40
21682;DHT22;11002;48.256;10.084;2023-08-07T03:07:45;10.70;70.10
21682;DHT22;11002;48.256;10.084;2023-08-07T03:10:12;10.70;69.30
21682;DHT22;11002;48.256;10.084;2023-08-07T03:12:39;10.80;70.20
21682;DHT22;11002;48.256;10.084;2023-08-07T03:15:07;10.80;69.50
21682;DHT22;11002;48.256;10.084;2023-08-07T03:17:34;10.80;69.40
21682;DHT22;11002;48.256;10.084;2023-08-07T03:20:02;10.90;68.50
21682;DHT22;11002;48.256;10.084;2023-08-07T03:22:32;10.90;68.60
21682;DHT22;11002;48.256;10.084;2023-08-07T03:24:59;10.90;66.60
21682;DHT22;11002;48.256;10.084;2023-08-07T03:27:26;10.90;65.80
21682;DHT22;11002;48.256;10.084;2023-08-07T03:29:54;10.90;65.80
21682;DHT22;11002;48.256;10.084;2023-08-07T03:32:24;10.90;65.90
21682;DHT22;11002;48.256;10.084;2023-08-07T03:34:52;10.80;65.70
21682;DHT22;11002;48.256;10.084;2023-08-07T03:37:20;10.80;65.70
21682;DHT22;11002;48.256;10.084;2023-08-07T03:39:49;10.70;65.70
21682;DHT22;11002;48.256;10.084;2023-08-07T03:42:16;10.70;65.70
21682;DHT22;11002;48.256;10.084;2023-08-07T03:44:45;10.70;65.80
21682;DHT22;11002;48.256;10.084;2023-08-07T03:47:13;10.60;66.60
21682;DHT22;11002;48.256;10.084;2023-08-07T03:49:40;10.60;66.70
21682;DHT22;11002;48.256;10.084;2023-08-07T03:52:08;10.60;67.00
21682;DHT22;11002;48.256;10.084;2023-08-07T03:54:36;10.60;66.90
21682;DHT22;11002;48.256;10.084;2023-08-07T03:57:05;10.60;66.90
21682;DHT22;11002;48.256;10.084;2023-08-07T03:59:34;10.60;66.50
21682;DHT22;11002;48.256;10.084;2023-08-07T04:02:01;10.50;66.50
21682;DHT22;11002;48.256;10.084;2023-08-07T04:04:29;10.50;67.70
21682;DHT22;11002;48.256;10.084;2023-08-07T04:06:56;10.50;67.80
21682;DHT22;11002;48.256;10.084;2023-08-07T04:09:24;10.50;68.10
21682;DHT22;11002;48.256;10.084;2023-08-07T04:11:51;10.50;68.00
21682;DHT22;11002;48.256;10.084;2023-08-07T04:14:20;10.50;68.20
21682;DHT22;11002;48.256;10.084;2023-08-07T04:16:47;10.50;67.10
21682;DHT22;11002;48.256;10.084;2023-08-07T04:19:14;10.50;66.50
21682;DHT22;11002;48.256;10.084;2023-08-07T04:21:42;10.50;66.80
21682;DHT22;11002;48.256;10.084;2023-08-07T04:24:09;10.50;67.00
21682;DHT22;11002;48.256;10.084;2023-08-07T04:26:37;10.50;66.50
21682;DHT22;11002;48.256;10.084;2023-08-07T04:29:05;10.50;65.70
21682;DHT22;11002;48.256;10.084;2023-08-07T04:31:34;10.50;65.40
21682;DHT22;11002;48.256;10.084;2023-08-07T04:34:01;10.50;65.40
21682;DHT22;11002;48.256;10.084;2023-08-07T04:36:29;10.50;66.20
21682;DHT22;11002;48.256;10.084;2023-08-07T04:38:56;10.50;65.40
21682;DHT22;11002;48.256;10.084;2023-08-07T04:41:23;10.50;65.50
21682;DHT22;11002;48.256;10.084;2023-08-07T04:43:50;10.50;66.40
21682;DHT22;11002;48.256;10.084;2023-08-07T04:46:17;10.50;65.40
21682;DHT22;11002;48.256;10.084;2023-08-07T04:48:46;10.50;65.40
21682;DHT22;11002;48.256;10.084;2023-08-07T04:51:14;10.60;65.50
21682;DHT22;11002;48.256;10.084;2023-08-07T04:53:41;10.60;65.50
21682;DHT22;11002;48.256;10.084;2023-08-07T04:56:08;10.60;65.60
21682;DHT22;11002;48.256;10.084;2023-08-07T04:58:36;10.60;65.50
21682;DHT22;11002;48.256;10.084;2023-08-07T05:01:03;10.70;65.60
21682;DHT22;11002;48.256;10.084;2023-08-07T05:03:30;10.70;65.50
21682;DHT22;11002;48.256;10.084;2023-08-07T05:05:59;10.70;65.60
21682;DHT22;11002;48.256;10.084;2023-08-07T05:08:27;10.80;64.30
21682;DHT22;11002;48.256;10.084;2023-08-07T05:10:54;10.80;63.70
21682;DHT22;11002;48.256;10.084;2023-08-07T05:13:22;10.90;64.60
21682;DHT22;11002;48.256;10.084;2023-08-07T05:15:50;11.00;62.80
21682;DHT22;11002;48.256;10.084;2023-08-07T05:18:18;11.20;62.10
21682;DHT22;11002;48.256;10.084;2023-08-07T05:20:45;11.30;59.50
21682;DHT22;11002;48.256;10.084;2023-08-07T05:23:13;11.50;59.60
21682;DHT22;11002;48.256;10.084;2023-08-07T05:25:41;11.80;59.70
21682;DHT22;11002;48.256;10.084;2023-08-07T05:28:08;11.90;57.30
21682;DHT22;11002;48.256;10.084;2023-08-07T05:30:35;12.10;54.00
21682;DHT22;11002;48.256;10.084;2023-08-07T05:33:02;12.30;54.20
21682;DHT22;11002;48.256;10.084;2023-08-07T05:35:29;12.40;54.30
21682;DHT22;11002;48.256;10.084;2023-08-07T05:37:57;12.50;53.50
21682;DHT22;11002;48.256;10.084;2023-08-07T05:40:25;12.60;53.90
21682;DHT22;11002;48.256;10.084;2023-08-07T05:42:52;12.60;52.40
21682;DHT22;11002;48.256;10.084;2023-08-07T05:45:20;12.70;53.10
21682;DHT22;11002;48.256;10.084;2023-08-07T05:47:47;12.80;51.50
21682;DHT22;11002;48.256;10.084;2023-08-07T05:50:14;12.90;52.40
21682;DHT22;11002;48.256;10.084;2023-08-07T05:52:41;13.10;51.20
21682;DHT22;11002;48.256;10.084;2023-08-07T05:55:09;13.30;51.70
21682;DHT22;11002;48.256;10.084;2023-08-07T05:57:37;13.50;49.00
21682;DHT22;11002;48.256;10.084;2023-08-07T06:00:06;13.60;49.10
21682;DHT22;11002;48.256;10.084;2023-08-07T06:02:39;13.90;49.30
21682;DHT22;11002;48.256;10.084;2023-08-07T06:05:07;14.00;48.20
21682;DHT22;11002;48.256;10.084;2023-08-07T06:07:36;13.90;47.20
21682;DHT22;11002;48.256;10.084;2023-08-07T06:10:04;13.80;47.10
21682;DHT22;11002;48.256;10.084;2023-08-07T06:12:32;13.70;47.60
21682;DHT22;11002;48.256;10.084;2023-08-07T06:15:00;13.60;47.70
21682;DHT22;11002;48.256;10.084;2023-08-07T06:17:28;13.50;49.00
21682;DHT22;11002;48.256;10.084;2023-08-07T06:19:55;13.50;49.00
21682;DHT22;11002;48.256;10.084;2023-08-07T06:22:22;13.40;50.50
21682;DHT22;11002;48.256;10.084;2023-08-07T06:24:49;13.40;48.80
21682;DHT22;11002;48.256;10.084;2023-08-07T06:27:17;13.50;49.00
21682;DHT22;11002;48.256;10.084;2023-08-07T06:29:44;13.50;49.00
21682;DHT22;11002;48.256;10.084;2023-08-07T06:32:13;13.60;49.10
21682;DHT22;11002;48.256;10.084;2023-08-07T06:34:40;13.60;49.10
21682;DHT22;11002;48.256;10.084;2023-08-07T06:37:08;13.60;49.10
21682;DHT22;11002;48.256;10.084;2023-08-07T06:39:35;13.50;49.50
21682;DHT22;11002;48.256;10.084;2023-08-07T06:42:03;13.50;46.80
21682;DHT22;11002;48.256;10.084;2023-08-07T06:44:34;13.40;48.90
21682;DHT22;11002;48.256;10.084;2023-08-07T06:47:02;13.40;48.90
21682;DHT22;11002;48.256;10.084;2023-08-07T06:49:30;13.40;48.90
21682;DHT22;11002;48.256;10.084;2023-08-07T06:51:59;13.40;49.30
21682;DHT22;11002;48.256;10.084;2023-08-07T06:54:26;13.40;49.70
21682;DHT22;11002;48.256;10.084;2023-08-07T06:56:53;13.40;50.30
21682;DHT22;11002;48.256;10.084;2023-08-07T06:59:20;13.40;50.20
21682;DHT22;11002;48.256;10.084;2023-08-07T07:01:47;13.30;49.00
21682;DHT22;11002;48.256;10.084;2023-08-07T07:04:15;13.20;48.70
21682;DHT22;11002;48.256;10.084;2023-08-07T07:06:43;13.20;48.70
21682;DHT22;11002;48.256;10.084;2023-08-07T07:09:10;13.20;49.80
21682;DHT22;11002;48.256;10.084;2023-08-07T07:11:42;13.20;49.60
21682;DHT22;11002;48.256;10.084;2023-08-07T07:14:10;13.20;50.60
21682;DHT22;11002;48.256;10.084;2023-08-07T07:16:38;13.30;50.30
21682;DHT22;11002;48.256;10.084;2023-08-07T07:19:05;13.40;48.90
21682;DHT22;11002;48.256;10.084;2023-08-07T07:21:34;13.40;49.00
21682;DHT22;11002;48.256;10.084;2023-08-07T07:24:03;13.50;50.30
21682;DHT22;11002;48.256;10.084;2023-08-07T07:26:30;13.60;49.10
21682;DHT22;11002;48.256;10.084;2023-08-07T07:28:58;13.80;49.20
21682;DHT22;11002;48.256;10.084;2023-08-07T07:31:25;14.00;49.20
21682;DHT22;11002;48.256;10.084;2023-08-07T07:33:52;14.10;48.30
21682;DHT22;11002;48.256;10.084;2023-08-07T07:36:20;14.20;48.70
21682;DHT22;11002;48.256;10.084;2023-08-07T07:38:47;14.20;48.40
21682;DHT22;11002;48.256;10.084;2023-08-07T07:41:16;14.30;48.30
21682;DHT22;11002;48.256;10.084;2023-08-07T07:43:44;14.30;48.30
21682;DHT22;11002;48.256;10.084;2023-08-07T07:46:11;14.30;46.30
21682;DHT22;11002;48.256;10.084;2023-08-07T07:48:38;14.30;47.70
21682;DHT22;11002;48.256;10.084;2023-08-07T07:51:05;14.30;47.10
21682;DHT22;11002;48.256;10.084;2023-08-07T07:53:33;14.20;49.10
21682;DHT22;11002;48.256;10.084;2023-08-07T07:56:00;14.30;48.30
21682;DHT22;11002;48.256;10.084;2023-08-07T07:58:28;14.40;47.70
21682;DHT22;11002;48.256;10.084;2023-08-07T08:00:56;14.50;47.80
21682;DHT22;11002;48.256;10.084;2023-08-07T08:03:23;14.60;46.70
21682;DHT22;11002;48.256;10.084;2023-08-07T08:05:51;14.60;46.70
21682;DHT22;11002;48.256;10.084;2023-08-07T08:08:19;14.70;45.60
21682;DHT22;11002;48.256;10.084;2023-08-07T08:10:46;14.80;46.90
21682;DHT22;11002;48.256;10.084;2023-08-07T08:13:14;14.90;48.40
21682;DHT22;11002;48.256;10.084;2023-08-07T08:15:43;15.00;48.20
21682;DHT22;11002;48.256;10.084;2023-08-07T08:18:11;15.10;48.30
21682;DHT22;11002;48.256;10.084;2023-08-07T08:20:38;15.20;45.80
21682;DHT22;11002;48.256;10.084;2023-08-07T08:23:05;15.30;44.10
21682;DHT22;11002;48.256;10.084;2023-08-07T08:25:33;15.30;44.10
21682;DHT22;11002;48.256;10.084;2023-08-07T08:28:00;15.50;45.10
21682;DHT22;11002;48.256;10.084;2023-08-07T08:30:28;15.70;44.50
21682;DHT22;11002;48.256;10.084;2023-08-07T08:32:56;16.00;44.30
21682;DHT22;11002;48.256;10.084;2023-08-07T08:35:24;16.40;44.80
21682;DHT22;11002;48.256;10.084;2023-08-07T08:37:51;17.00;41.40
21682;DHT22;11002;48.256;10.084;2023-08-07T08:40:18;17.70;37.80
21682;DHT22;11002;48.256;10.084;2023-08-07T08:42:46;18.10;37.00
21682;DHT22;11002;48.256;10.084;2023-08-07T08:45:14;18.30;36.70
21682;DHT22;11002;48.256;10.084;2023-08-07T08:47:42;18.20;34.10
21682;DHT22;11002;48.256;10.084;2023-08-07T08:50:13;17.90;36.30
21682;DHT22;11002;48.256;10.084;2023-08-07T08:52:42;17.50;35.80
21682;DHT22;11002;48.256;10.084;2023-08-07T08:55:11;17.10;37.20
21682;DHT22;11002;48.256;10.084;2023-08-07T08:57:39;16.80;37.80
21682;DHT22;11002;48.256;10.084;2023-08-07T09:00:08;16.70;39.70
21682;DHT22;11002;48.256;10.084;2023-08-07T09:02:44;16.80;37.10
21682;DHT22;11002;48.256;10.084;2023-08-07T09:05:14;17.00;38.30
21682;DHT22;11002;48.256;10.084;2023-08-07T09:07:41;17.30;37.40
21682;DHT22;11002;48.256;10.084;2023-08-07T09:10:10;17.40;36.20
21682;DHT22;11002;48.256;10.084;2023-08-07T09:12:41;17.60;35.40
21682;DHT22;11002;48.256;10.084;2023-08-07T09:15:10;17.80;33.10
21682;DHT22;11002;48.256;10.084;2023-08-07T09:17:40;17.90;32.10
21682;DHT22;11002;48.256;10.084;2023-08-07T09:20:08;18.00;33.30
21682;DHT22;11002;48.256;10.084;2023-08-07T09:22:39;17.90;33.20
21682;DHT22;11002;48.256;10.084;2023-08-07T09:25:07;17.80;33.10
21682;DHT22;11002;48.256;10.084;2023-08-07T09:27:36;17.80;33.10
21682;DHT22;11002;48.256;10.084;2023-08-07T09:30:06;18.00;33.30
21682;DHT22;11002;48.256;10.084;2023-08-07T09:32:35;18.30;32.30
21682;DHT22;11002;48.256;10.084;2023-08-07T09:35:06;18.30;33.60
21682;DHT22;11002;48.256;10.084;2023-08-07T09:37:36;18.40;31.90
21682;DHT22;11002;48.256;10.084;2023-08-07T09:40:07;18.30;29.40
21682;DHT22;11002;48.256;10.084;2023-08-07T09:42:37;18.20;30.00
21682;DHT22;11002;48.256;10.084;2023-08-07T09:45:19;18.10;31.00
21682;DHT22;11002;48.256;10.084;2023-08-07T09:47:46;18.50;29.90
21682;DHT22;11002;48.256;10.084;2023-08-07T09:50:16;19.20;28.70
21682;DHT22;11002;48.256;10.084;2023-08-07T09:52:46;19.50;27.20
21682;DHT22;11002;48.256;10.084;2023-08-07T09:55:15;19.50;26.50
21682;DHT22;11002;48.256;10.084;2023-08-07T09:57:43;19.70;25.50
21682;DHT22;11002;48.256;10.084;2023-08-07T10:00:11;20.00;23.40
21682;DHT22;11002;48.256;10.084;2023-08-07T10:02:42;20.30;24.80
21682;DHT22;11002;48.256;10.084;2023-08-07T10:05:10;20.30;24.20
21682;DHT22;11002;48.256;10.084;2023-08-07T10:07:39;20.80;23.90
21682;DHT22;11002;48.256;10.084;2023-08-07T10:10:07;21.30;24.30
21682;DHT22;11002;48.256;10.084;2023-08-07T10:12:37;21.70;23.30
21682;DHT22;11002;48.256;10.084;2023-08-07T10:15:05;21.50;24.40
21682;DHT22;11002;48.256;10.084;2023-08-07T10:17:33;21.10;24.20
21682;DHT22;11002;48.256;10.084;2023-08-07T10:20:00;21.20;24.20
21682;DHT22;11002;48.256;10.084;2023-08-07T10:22:30;21.50;23.70
21682;DHT22;11002;48.256;10.084;2023-08-07T10:25:00;21.80;23.90
21682;DHT22;11002;48.256;10.084;2023-08-07T10:27:30;22.10;21.40
21682;DHT22;11002;48.256;10.084;2023-08-07T10:30:02;22.00;22.10
21682;DHT22;11002;48.256;10.084;2023-08-07T10:32:32;21.40;21.50
21682;DHT22;11002;48.256;10.084;2023-08-07T10:35:03;20.80;23.90
21682;DHT22;11002;48.256;10.084;2023-08-07T10:37:39;20.40;23.70
21682;DHT22;11002;48.256;10.084;2023-08-07T10:40:08;19.80;24.80
21682;DHT22;11002;48.256;10.084;2023-08-07T10:42:56;19.20;25.90
21682;DHT22;11002;48.256;10.084;2023-08-07T10:45:26;18.70;27.60
21682;DHT22;11002;48.256;10.084;2023-08-07T10:48:01;18.40;29.00
21682;DHT22;11002;48.256;10.084;2023-08-07T10:50:29;18.90;29.30
21682;DHT22;11002;48.256;10.084;2023-08-07T10:53:00;19.20;27.40
21682;DHT22;11002;48.256;10.084;2023-08-07T10:55:31;19.10;26.20
21682;DHT22;11002;48.256;10.084;2023-08-07T10:57:59;18.70;25.20
21682;DHT22;11002;48.256;10.084;2023-08-07T11:00:29;18.40;27.40
21682;DHT22;11002;48.256;10.084;2023-08-07T11:02:58;18.20;27.60
21682;DHT22;11002;48.256;10.084;2023-08-07T11:05:27;18.40;28.60
21682;DHT22;11002;48.256;10.084;2023-08-07T11:07:55;18.80;27.60
21682;DHT22;11002;48.256;10.084;2023-08-07T11:10:24;18.90;27.30
21682;DHT22;11002;48.256;10.084;2023-08-07T11:12:51;18.70;26.30
21682;DHT22;11002;48.256;10.084;2023-08-07T11:15:19;18.50;28.30
21682;DHT22;11002;48.256;10.084;2023-08-07T11:17:47;18.50;29.30
21682;DHT22;11002;48.256;10.084;2023-08-07T11:20:16;19.00;29.30
21682;DHT22;11002;48.256;10.084;2023-08-07T11:22:43;19.60;25.90
21682;DHT22;11002;48.256;10.084;2023-08-07T11:25:10;20.50;26.70
21682;DHT22;11002;48.256;10.084;2023-08-07T11:27:39;21.10;24.10
21682;DHT22;11002;48.256;10.084;2023-08-07T11:30:11;20.90;24.00
21682;DHT22;11002;48.256;10.084;2023-08-07T11:32:39;20.80;23.90
21682;DHT22;11002;48.256;10.084;2023-08-07T11:35:08;20.70;23.90
21682;DHT22;11002;48.256;10.084;2023-08-07T11:37:36;20.60;23.80
21682;DHT22;11002;48.256;10.084;2023-08-07T11:40:03;20.60;23.80
21682;DHT22;11002;48.256;10.084;2023-08-07T11:42:31;20.70;23.90
21682;DHT22;11002;48.256;10.084;2023-08-07T11:44:58;20.80;23.90
21682;DHT22;11002;48.256;10.084;2023-08-07T11:47:26;20.60;23.80
21682;DHT22;11002;48.256;10.084;2023-08-07T11:49:54;20.30;23.60
21682;DHT22;11002;48.256;10.084;2023-08-07T11:52:22;20.10;23.50
21682;DHT22;11002;48.256;10.084;2023-08-07T11:54:52;20.00;23.40
21682;DHT22;11002;48.256;10.084;2023-08-07T11:57:20;19.90;23.30
21682;DHT22;11002;48.256;10.084;2023-08-07T11:59:49;19.90;23.30
21682;DHT22;11002;48.256;10.084;2023-08-07T12:02:16;20.20;23.50
21682;DHT22;11002;48.256;10.084;2023-08-07T12:04:43;20.10;23.50
21682;DHT22;11002;48.256;10.084;2023-08-07T12:07:11;20.10;23.50
21682;DHT22;11002;48.256;10.084;2023-08-07T12:09:41;20.10;23.50
21682;DHT22;11002;48.256;10.084;2023-08-07T12:12:11;20.30;23.60
21682;DHT22;11002;48.256;10.084;2023-08-07T12:14:38;20.30;24.30
21682;DHT22;11002;48.256;10.084;2023-08-07T12:17:09;20.70;24.50
21682;DHT22;11002;48.256;10.084;2023-08-07T12:19:37;20.90;22.00
21682;DHT22;11002;48.256;10.084;2023-08-07T12:22:06;20.80;21.30
21682;DHT22;11002;48.256;10.084;2023-08-07T12:24:35;20.60;22.00
21682;DHT22;11002;48.256;10.084;2023-08-07T12:27:07;20.40;23.70
21682;DHT22;11002;48.256;10.084;2023-08-07T12:29:34;20.30;23.60
21682;DHT22;11002;48.256;10.084;2023-08-07T12:32:01;20.10;23.50
21682;DHT22;11002;48.256;10.084;2023-08-07T12:34:28;20.10;23.50
21682;DHT22;11002;48.256;10.084;2023-08-07T12:36:56;20.10;24.50
21682;DHT22;11002;48.256;10.084;2023-08-07T12:39:23;20.30;25.60
21682;DHT22;11002;48.256;10.084;2023-08-07T12:41:50;20.20;23.50
21682;DHT22;11002;48.256;10.084;2023-08-07T12:44:19;20.00;23.40
21682;DHT22;11002;48.256;10.084;2023-08-07T12:46:46;19.60;23.10
21682;DHT22;11002;48.256;10.084;2023-08-07T12:49:15;19.20;22.90
21682;DHT22;11002;48.256;10.084;2023-08-07T12:51:42;18.70;24.40
21682;DHT22;11002;48.256;10.084;2023-08-07T12:54:09;18.50;25.90
21682;DHT22;11002;48.256;10.084;2023-08-07T12:56:37;18.30;25.70
21682;DHT22;11002;48.256;10.084;2023-08-07T12:59:04;18.40;26.90
21682;DHT22;11002;48.256;10.084;2023-08-07T13:01:32;18.60;26.90
21682;DHT22;11002;48.256;10.084;2023-08-07T13:04:00;18.50;26.20
21682;DHT22;11002;48.256;10.084;2023-08-07T13:06:29;18.20;25.60
21682;DHT22;11002;48.256;10.084;2023-08-07T13:08:56;17.90;26.50
21682;DHT22;11002;48.256;10.084;2023-08-07T13:11:23;17.70;27.20
21682;DHT22;11002;48.256;10.084;2023-08-07T13:13:50;17.50;29.30
21682;DHT22;11002;48.256;10.084;2023-08-07T13:16:18;17.30;30.00
21682;DHT22;11002;48.256;10.084;2023-08-07T13:18:46;17.00;32.50
21682;DHT22;11002;48.256;10.084;2023-08-07T13:21:13;16.80;30.70
21682;DHT22;11002;48.256;10.084;2023-08-07T13:23:41;16.70;32.20
21682;DHT22;11002;48.256;10.084;2023-08-07T13:26:08;16.60;32.10
21682;DHT22;11002;48.256;10.084;2023-08-07T13:28:35;16.60;32.10
21682;DHT22;11002;48.256;10.084;2023-08-07T13:31:02;16.70;32.20
21682;DHT22;11002;48.256;10.084;2023-08-07T13:33:29;16.90;33.40
21682;DHT22;11002;48.256;10.084;2023-08-07T13:35:58;17.10;31.60
21682;DHT22;11002;48.256;10.084;2023-08-07T13:38:25;17.30;32.70
21682;DHT22;11002;48.256;10.084;2023-08-07T13:40:52;17.50;31.40
21682;DHT22;11002;48.256;10.084;2023-08-07T13:43:20;17.60;28.30
21682;DHT22;11002;48.256;10.084;2023-08-07T13:45:47;17.60;29.60
21682;DHT22;11002;48.256;10.084;2023-08-07T13:48:16;17.60;29.90
21682;DHT22;11002;48.256;10.084;2023-08-07T13:50:44;17.50;30.00
21682;DHT22;11002;48.256;10.084;2023-08-07T13:53:12;17.40;30.20
21682;DHT22;11002;48.256;10.084;2023-08-07T13:55:40;17.20;29.20
21682;DHT22;11002;48.256;10.084;2023-08-07T13:58:07;17.00;30.20
21682;DHT22;11002;48.256;10.084;2023-08-07T14:00:35;16.90;30.30
21682;DHT22;11002;48.256;10.084;2023-08-07T14:03:02;16.80;31.00
21682;DHT22;11002;48.256;10.084;2023-08-07T14:05:30;16.70;32.20
21682;DHT22;11002;48.256;10.084;2023-08-07T14:07:57;16.70;32.20
21682;DHT22;11002;48.256;10.084;2023-08-07T14:10:25;16.70;32.20
21682;DHT22;11002;48.256;10.084;2023-08-07T14:12:53;16.70;32.20
21682;DHT22;11002;48.256;10.084;2023-08-07T14:15:20;16.70;32.20
21682;DHT22;11002;48.256;10.084;2023-08-07T14:17:47;16.70;32.20
21682;DHT22;11002;48.256;10.084;2023-08-07T14:20:15;16.70;32.20
21682;DHT22;11002;48.256;10.084;2023-08-07T14:22:42;16.70;32.20
21682;DHT22;11002;48.256;10.084;2023-08-07T14:25:09;16.70;32.20
21682;DHT22;11002;48.256;10.084;2023-08-07T14:27:38;16.60;34.20
21682;DHT22;11002;48.256;10.084;2023-08-07T14:30:06;16.60;33.50
21682;DHT22;11002;48.256;10.084;2023-08-07T14:32:33;16.50;35.10
21682;DHT22;11002;48.256;10.084;2023-08-07T14:35:01;16.50;35.40
21682;DHT22;11002;48.256;10.084;2023-08-07T14:37:28;16.40;33.30
21682;DHT22;11002;48.256;10.084;2023-08-07T14:39:55;16.30;34.60
21682;DHT22;11002;48.256;10.084;2023-08-07T14:42:23;16.30;33.50
21682;DHT22;11002;48.256;10.084;2023-08-07T14:44:51;16.20;35.80
21682;DHT22;11002;48.256;10.084;2023-08-07T14:47:19;16.20;35.60
21682;DHT22;11002;48.256;10.084;2023-08-07T14:49:46;16.30;33.80
21682;DHT22;11002;48.256;10.084;2023-08-07T14:52:13;16.40;34.50
21682;DHT22;11002;48.256;10.084;2023-08-07T14:54:40;16.70;34.90
21682;DHT22;11002;48.256;10.084;2023-08-07T14:57:07;16.90;34.80
21682;DHT22;11002;48.256;10.084;2023-08-07T14:59:35;17.10;32.50
21682;DHT22;11002;48.256;10.084;2023-08-07T15:02:05;17.10;33.40
21682;DHT22;11002;48.256;10.084;2023-08-07T15:04:32;17.10;32.10
21682;DHT22;11002;48.256;10.084;2023-08-07T15:06:59;17.10;33.20
21682;DHT22;11002;48.256;10.084;2023-08-07T15:09:27;17.00;32.50
21682;DHT22;11002;48.256;10.084;2023-08-07T15:11:54;17.00;33.30
21682;DHT22;11002;48.256;10.084;2023-08-07T15:14:21;17.00;32.50
21682;DHT22;11002;48.256;10.084;2023-08-07T15:16:49;17.00;32.50
21682;DHT22;11002;48.256;10.084;2023-08-07T15:19:17;17.00;32.50
21682;DHT22;11002;48.256;10.084;2023-08-07T15:21:44;17.00;32.50